Time;durP1;ratioP1;P1;durP2;ratioP2;P2;SDS_P1;SDS_P2;PMS_P1;PMS_P2;Temp;Humidity;BMP_temperature;BMP_pressure;BME280_temperature;BME280_humidity;BME280_pressure;Samples;Min_cycle;Max_cycle;Signal;HPM_P1;HPM_P2
2022/01/17 00:01:32;;;;;;;19.17;2.35;;;;;;;-149.78;100.00;50559.47;5074213;28;20369;-64
2022/01/17 00:03:58;;;;;;;13.00;2.20;;;;;;;-149.78;100.00;50584.88;5074057;28;20036;-64
2022/01/17 00:06:24;;;;;;;12.43;2.80;;;;;;;-149.78;100.00;50579.00;5074165;28;20089;-64
2022/01/17 00:08:50;;;;;;;15.57;2.10;;;;;;;-149.78;100.00;50614.22;5074086;28;20068;-64
2022/01/17 00:11:17;;;;;;;13.13;2.30;;;;;;;-149.78;100.00;50580.97;5074081;28;20033;-64
2022/01/17 00:13:44;;;;;;;14.68;2.42;;;;;;;-149.78;100.00;50553.59;5073884;28;20032;-64
2022/01/17 00:16:14;;;;;;;13.43;3.67;;;;;;;-149.78;100.00;50606.41;5074090;28;20040;-64
2022/01/17 00:21:12;;;;;;;15.98;2.20;;;;;;;-149.78;100.00;50580.97;5074189;28;20037;-64
2022/01/17 00:23:37;;;;;;;14.43;2.05;;;;;;;-149.78;100.00;50580.97;5073860;28;20032;-64
2022/01/17 00:26:06;;;;;;;15.98;1.83;;;;;;;-149.78;100.00;50545.75;5055958;28;20044;-64
2022/01/17 00:28:33;;;;;;;9.93;1.70;;;;;;;-149.78;100.00;50588.78;5073793;28;20036;-64
2022/01/17 00:31:01;;;;;;;14.18;2.08;;;;;;;-149.78;100.00;50586.84;5073500;28;20041;-64
2022/01/17 00:33:27;;;;;;;11.13;2.08;;;;;;;-149.78;100.00;50584.88;5073560;28;20044;-64
2022/01/17 00:35:53;;;;;;;17.05;1.67;;;;;;;-149.78;100.00;50573.16;5073524;28;20111;-64
2022/01/17 00:38:18;;;;;;;14.05;1.70;;;;;;;-149.78;100.00;50557.50;5073540;28;20441;-64
2022/01/17 00:40:44;;;;;;;9.52;1.90;;;;;;;-149.78;100.00;50573.16;5073612;28;20049;-64
2022/01/17 00:43:12;;;;;;;16.73;2.15;;;;;;;-149.78;100.00;50614.22;5073370;28;20064;-64
2022/01/17 00:45:40;;;;;;;12.20;1.58;;;;;;;-149.78;100.00;50592.72;5073193;28;20024;-64
2022/01/17 00:48:06;;;;;;;7.78;1.75;;;;;;;-149.78;100.00;50573.16;5073119;28;20094;-64
2022/01/17 00:50:34;;;;;;;18.75;2.00;;;;;;;-149.78;100.00;50584.88;5072649;28;20040;-65
2022/01/17 00:53:03;;;;;;;14.23;1.85;;;;;;;-149.78;100.00;50592.72;5072910;28;20037;-64
2022/01/17 00:55:29;;;;;;;14.80;1.92;;;;;;;-149.78;100.00;50582.94;5055728;28;20097;-65
2022/01/17 00:57:55;;;;;;;14.55;2.35;;;;;;;-149.78;100.00;50580.97;5072824;28;20051;-64
2022/01/17 01:00:21;;;;;;;11.18;1.98;;;;;;;-149.78;100.00;50592.72;5072814;28;20040;-64
2022/01/17 01:02:47;;;;;;;13.27;1.67;;;;;;;-149.78;100.00;50565.31;5072458;28;20060;-64
2022/01/17 01:05:13;;;;;;;12.75;1.70;;;;;;;-149.78;100.00;50573.16;5072717;28;20036;-64
2022/01/17 01:07:39;;;;;;;8.13;1.50;;;;;;;-149.78;100.00;50600.53;5072763;28;20031;-65
2022/01/17 01:10:10;;;;;;;13.85;2.10;;;;;;;-149.78;100.00;50577.06;5054925;28;20059;-65
2022/01/17 01:12:54;;;;;;;10.23;1.50;;;;;;;-149.78;100.00;50586.84;5072448;28;20036;-64
2022/01/17 01:18:37;;;;;;;11.18;1.55;;;;;;;-149.78;100.00;50588.78;5000977;28;20129;-65
2022/01/17 01:29:23;;;;;;;9.90;1.55;;;;;;;-149.78;100.00;50580.97;5072557;28;20069;-65
2022/01/17 01:31:57;;;;;;;11.68;1.35;;;;;;;-149.78;100.00;50573.16;5072355;28;20049;-65
2022/01/17 01:34:32;;;;;;;11.73;2.05;;;;;;;-149.78;100.00;50580.97;5072808;28;20116;-64
2022/01/17 01:36:58;;;;;;;12.75;1.60;;;;;;;-149.78;100.00;50618.13;5072864;28;20384;-65
2022/01/17 01:39:24;;;;;;;10.85;1.48;;;;;;;-149.78;100.00;50579.00;5054799;28;20125;-65
2022/01/17 01:41:51;;;;;;;13.25;2.38;;;;;;;-149.78;100.00;50588.78;5072649;28;20128;-65
2022/01/17 01:44:19;;;;;;;9.98;1.75;;;;;;;-149.78;100.00;50573.16;5072751;28;20111;-65
2022/01/17 01:46:47;;;;;;;10.95;1.48;;;;;;;-149.78;100.00;50545.75;5072836;28;20036;-65
2022/01/17 01:49:13;;;;;;;11.77;1.90;;;;;;;-149.78;100.00;50616.19;5072750;28;20377;-65
2022/01/17 01:51:40;;;;;;;10.85;1.40;;;;;;;-149.78;100.00;50545.75;5072597;28;20052;-65
2022/01/17 01:54:07;;;;;;;11.07;1.67;;;;;;;-149.78;100.00;50588.78;5072679;28;20029;-65
2022/01/17 01:56:43;;;;;;;12.38;1.73;;;;;;;-149.78;100.00;50606.41;5072772;28;20043;-65
2022/01/17 01:59:09;;;;;;;11.90;1.80;;;;;;;-149.78;100.00;50580.97;5072465;28;20107;-65
2022/01/17 02:01:35;;;;;;;10.68;2.00;;;;;;;-149.78;100.00;50602.47;5076005;28;20024;-64
2022/01/17 02:04:02;;;;;;;12.15;1.77;;;;;;;-149.78;100.00;50592.72;5076547;28;20036;-65
2022/01/17 02:06:27;;;;;;;13.50;2.80;;;;;;;-149.78;100.00;50588.78;5076433;28;20032;-65
2022/01/17 02:08:53;;;;;;;12.88;1.75;;;;;;;-149.78;100.00;50561.41;5072484;28;20033;-65
2022/01/17 02:11:19;;;;;;;11.55;1.80;;;;;;;-149.78;100.00;50612.25;5075584;28;20119;-65
2022/01/17 02:13:46;;;;;;;10.95;1.58;;;;;;;-149.78;100.00;50580.97;5076086;28;20041;-65
2022/01/17 02:16:15;;;;;;;9.90;1.60;;;;;;;-149.78;100.00;50545.75;5076319;28;20040;-64
2022/01/17 02:18:43;;;;;;;5.38;1.30;;;;;;;-149.78;100.00;50592.72;5076100;28;20090;-65
2022/01/17 02:23:43;;;;;;;10.13;1.48;;;;;;;-149.78;100.00;50582.94;5067357;28;20032;-64
2022/01/17 02:26:09;;;;;;;4.40;1.35;;;;;;;-149.78;100.00;50571.19;5075773;28;20028;-64
2022/01/17 02:28:36;;;;;;;11.75;1.48;;;;;;;-149.78;100.00;50573.16;5057897;28;20491;-65
2022/01/17 02:31:06;;;;;;;7.53;1.95;;;;;;;-149.78;100.00;50522.28;5063627;28;20044;-65
2022/01/17 02:33:36;;;;;;;8.30;2.33;;;;;;;-149.78;100.00;50580.97;5072827;28;20029;-62
2022/01/17 02:36:02;;;;;;;5.78;1.50;;;;;;;-149.78;100.00;50553.59;5057439;28;20036;-62
2022/01/17 02:38:29;;;;;;;8.18;1.52;;;;;;;-149.78;100.00;50573.16;5067939;28;20094;-62
2022/01/17 02:40:55;;;;;;;7.70;1.33;;;;;;;-149.78;100.00;50577.06;5073769;28;20028;-62
2022/01/17 02:43:22;;;;;;;8.25;1.50;;;;;;;-149.78;100.00;50588.78;5057695;28;20123;-62
2022/01/17 02:48:18;;;;;;;7.82;1.48;;;;;;;-149.78;100.00;50577.06;5075304;28;20081;-62
2022/01/17 02:50:44;;;;;;;7.10;1.50;;;;;;;-149.78;100.00;50571.19;5075070;28;20036;-62
2022/01/17 02:53:12;;;;;;;13.15;1.60;;;;;;;-149.78;100.00;50588.78;5074568;28;20083;-62
2022/01/17 02:55:46;;;;;;;7.88;1.40;;;;;;;-149.78;100.00;50569.22;5075373;28;20111;-62
2022/01/17 02:58:12;;;;;;;11.00;1.80;;;;;;;-149.78;100.00;50575.09;5075062;28;20116;-62
2022/01/17 03:00:39;;;;;;;8.85;1.73;;;;;;;-149.78;100.00;50569.22;5075442;28;20032;-62
2022/01/17 03:03:08;;;;;;;6.43;1.27;;;;;;;-149.78;100.00;50598.56;5075106;28;20537;-61
2022/01/17 03:05:35;;;;;;;9.15;1.73;;;;;;;-149.78;100.00;50547.72;5075172;28;20042;-62
2022/01/17 03:08:00;;;;;;;10.60;1.60;;;;;;;-149.78;100.00;50590.75;5075072;28;20036;-62
2022/01/17 03:12:52;;;;;;;11.20;1.20;;;;;;;-149.78;100.00;50596.63;5074063;28;20032;-65
2022/01/17 03:15:21;;;;;;;5.15;1.27;;;;;;;-149.78;100.00;50592.72;5074851;28;20487;-65
2022/01/17 03:17:47;;;;;;;4.78;1.30;;;;;;;-149.78;100.00;50588.78;5075148;28;20052;-65
2022/01/17 03:20:16;;;;;;;4.80;1.35;;;;;;;-149.78;100.00;50555.53;5075270;28;20041;-65
2022/01/17 03:22:44;;;;;;;10.35;1.30;;;;;;;-149.78;100.00;50545.75;5041067;28;20379;-65
2022/01/17 03:25:10;;;;;;;10.95;1.38;;;;;;;-149.78;100.00;50541.84;5074933;28;20397;-65
2022/01/17 03:27:35;;;;;;;6.25;1.42;;;;;;;-149.78;100.00;50553.59;5057008;28;20166;-65
2022/01/17 03:30:01;;;;;;;5.72;1.55;;;;;;;-149.78;100.00;50553.59;5074549;28;20546;-65
2022/01/17 03:32:27;;;;;;;5.78;1.15;;;;;;;-149.78;100.00;50555.53;5056839;28;20052;-65
2022/01/17 03:34:55;;;;;;;6.45;1.30;;;;;;;-149.78;100.00;50592.72;5074572;28;20093;-65
2022/01/17 03:37:21;;;;;;;8.80;1.60;;;;;;;-149.78;100.00;50584.88;5074840;28;20384;-65
2022/01/17 03:39:48;;;;;;;6.03;1.30;;;;;;;-149.78;100.00;50565.31;5057114;28;20044;-65
2022/01/17 03:42:14;;;;;;;7.10;1.70;;;;;;;-149.78;100.00;50580.97;5056784;28;20039;-65
2022/01/17 03:44:39;;;;;;;11.40;1.42;;;;;;;-149.78;100.00;50592.72;5074686;28;20043;-65
2022/01/17 03:47:05;;;;;;;7.38;1.52;;;;;;;-149.78;100.00;50553.59;5074743;28;20040;-65
2022/01/17 03:49:31;;;;;;;7.78;1.23;;;;;;;-149.78;100.00;50580.97;5074567;28;20128;-65
2022/01/17 03:51:57;;;;;;;5.97;1.27;;;;;;;-149.78;100.00;50600.53;5074525;28;20064;-65
2022/01/17 03:54:23;;;;;;;8.02;2.15;;;;;;;-149.78;100.00;50592.72;5074615;28;20067;-65
2022/01/17 03:56:48;;;;;;;6.47;2.35;;;;;;;-149.78;100.00;50573.16;5074468;28;20051;-65
2022/01/17 03:59:14;;;;;;;7.63;1.25;;;;;;;-149.78;100.00;50604.44;5056528;28;20048;-65
2022/01/17 04:01:40;;;;;;;6.60;1.25;;;;;;;-149.78;100.00;50573.16;5073819;28;20024;-65
2022/01/17 04:04:06;;;;;;;10.88;1.50;;;;;;;-149.78;100.00;50565.31;5068001;28;20464;-65
2022/01/17 04:06:33;;;;;;;10.38;1.50;;;;;;;-149.78;100.00;50592.72;5054257;28;20530;-62
2022/01/17 04:08:59;;;;;;;5.20;1.40;;;;;;;-149.78;100.00;50594.66;5054110;28;20491;-62
2022/01/17 04:11:25;;;;;;;10.52;1.60;;;;;;;-149.78;100.00;50565.31;5054114;28;20037;-62
2022/01/17 04:14:01;;;;;;;5.75;1.38;;;;;;;-149.78;100.00;50565.31;5054039;28;20041;-65
2022/01/17 04:16:36;;;;;;;6.95;1.33;;;;;;;-149.78;100.00;50573.16;5053980;28;20128;-65
2022/01/17 04:19:02;;;;;;;7.00;1.27;;;;;;;-149.78;100.00;50610.31;5036178;28;20132;-65
2022/01/17 04:21:34;;;;;;;7.68;1.30;;;;;;;-149.78;100.00;50577.06;5053795;28;20474;-65
2022/01/17 04:24:00;;;;;;;3.33;1.02;;;;;;;-149.78;100.00;50620.09;5052930;28;20144;-65
2022/01/17 04:26:26;;;;;;;2.72;1.13;;;;;;;-149.78;100.00;50590.75;5053789;28;20488;-65
2022/01/17 04:28:52;;;;;;;6.93;1.25;;;;;;;-149.78;100.00;50590.75;5053802;28;20040;-65
2022/01/17 04:31:18;;;;;;;6.28;1.20;;;;;;;-149.78;100.00;50577.06;5055430;28;20045;-65
2022/01/17 04:33:44;;;;;;;3.15;1.10;;;;;;;-149.78;100.00;50557.50;5073710;28;20048;-65
2022/01/17 04:36:10;;;;;;;8.55;1.10;;;;;;;-149.78;100.00;50592.72;5073724;28;20036;-65
2022/01/17 04:38:36;;;;;;;13.52;1.40;;;;;;;-149.78;100.00;50582.94;5073680;28;20069;-65
2022/01/17 04:41:14;;;;;;;3.92;1.20;;;;;;;-149.78;100.00;50612.25;5073581;28;20043;-65
2022/01/17 04:46:11;;;;;;;3.22;1.00;;;;;;;-149.78;100.00;50577.06;5073531;28;20040;-65
2022/01/17 04:48:38;;;;;;;5.68;1.15;;;;;;;-149.78;100.00;50543.81;5073169;28;20035;-65
2022/01/17 04:51:04;;;;;;;2.28;0.80;;;;;;;-149.78;100.00;50580.97;5073207;28;20029;-65
2022/01/17 04:53:30;;;;;;;7.10;0.90;;;;;;;-149.78;100.00;50580.97;5055585;28;20032;-64
2022/01/17 04:55:57;;;;;;;3.63;0.80;;;;;;;-149.78;100.00;50584.88;5073165;28;20036;-65
2022/01/17 04:58:23;;;;;;;5.45;0.95;;;;;;;-149.78;100.00;50577.06;5073349;28;20102;-65
2022/01/17 05:00:49;;;;;;;3.47;0.90;;;;;;;-149.78;100.00;50604.44;5073413;28;20150;-65
2022/01/17 05:03:23;;;;;;;1.58;0.90;;;;;;;-149.78;100.00;50565.31;5073395;28;20041;-65
2022/01/17 05:05:50;;;;;;;6.00;0.95;;;;;;;-149.78;100.00;50584.88;5073160;28;20036;-65
2022/01/17 05:08:16;;;;;;;3.40;0.65;;;;;;;-149.78;100.00;50580.97;5073216;28;20032;-65
2022/01/17 05:10:45;;;;;;;5.53;1.05;;;;;;;-149.78;100.00;50580.97;5072884;28;20036;-65
2022/01/17 05:13:16;;;;;;;6.20;1.00;;;;;;;-149.78;100.00;50580.97;5072938;28;20048;-65
2022/01/17 05:15:51;;;;;;;5.63;1.00;;;;;;;-149.78;100.00;50592.72;5073104;28;20043;-65
2022/01/17 05:20:57;;;;;;;8.25;0.93;;;;;;;-149.78;100.00;50577.06;5073088;28;20131;-65
2022/01/17 05:23:23;;;;;;;4.35;1.23;;;;;;;-149.78;100.00;50575.09;5072904;28;20115;-65
2022/01/17 05:25:49;;;;;;;2.70;1.23;;;;;;;-149.78;100.00;50584.88;5073011;28;20047;-65
2022/01/17 05:28:14;;;;;;;1.58;0.80;;;;;;;-149.78;100.00;50577.06;5072953;28;20048;-65
2022/01/17 05:30:40;;;;;;;5.65;1.05;;;;;;;-149.78;100.00;50522.28;5072617;28;20048;-65
2022/01/17 05:33:06;;;;;;;2.05;0.85;;;;;;;-149.78;100.00;50565.31;5072692;28;20105;-65
2022/01/17 05:35:32;;;;;;;3.95;1.00;;;;;;;-149.78;100.00;50565.31;5075903;28;20085;-65
2022/01/17 05:37:58;;;;;;;3.60;1.00;;;;;;;-149.78;100.00;50584.88;5079034;28;20052;-65
2022/01/17 05:40:24;;;;;;;11.68;1.20;;;;;;;-149.78;100.00;50545.75;5079288;28;20036;-65
2022/01/17 05:42:50;;;;;;;2.53;1.02;;;;;;;-149.78;100.00;50577.06;5079106;28;20048;-65
2022/01/17 05:45:16;;;;;;;4.25;1.23;;;;;;;-149.78;100.00;50592.72;5079043;28;20120;-65
2022/01/17 05:47:43;;;;;;;6.53;1.10;;;;;;;-149.78;100.00;50588.78;5079009;28;20097;-65
2022/01/17 05:50:10;;;;;;;3.08;1.00;;;;;;;-149.78;100.00;50571.19;5079030;28;20146;-65
2022/01/17 05:52:36;;;;;;;7.15;1.23;;;;;;;-149.78;100.00;50557.50;5078772;28;20028;-65
2022/01/17 05:55:03;;;;;;;3.17;0.98;;;;;;;-149.78;100.00;50561.41;5078743;28;20059;-65
2022/01/17 05:57:28;;;;;;;3.47;0.80;;;;;;;-149.78;100.00;50580.97;5061035;28;20476;-65
2022/01/17 05:59:55;;;;;;;8.90;0.98;;;;;;;-149.78;100.00;50580.97;5078953;28;20040;-65
2022/01/17 06:02:22;;;;;;;4.82;0.90;;;;;;;-149.78;100.00;50584.88;5078941;28;20502;-65
2022/01/17 06:04:48;;;;;;;10.82;1.38;;;;;;;-149.78;100.00;50565.31;5060900;28;20102;-65
2022/01/17 06:07:13;;;;;;;4.47;0.90;;;;;;;-149.78;100.00;50588.78;5079415;28;20087;-64
2022/01/17 06:09:39;;;;;;;8.13;1.10;;;;;;;-149.78;100.00;50577.06;5079366;28;20460;-65
2022/01/17 06:12:06;;;;;;;1.17;0.70;;;;;;;-149.78;100.00;50584.88;5078987;28;20040;-65
2022/01/17 06:14:31;;;;;;;2.90;1.00;;;;;;;-149.78;100.00;50577.06;5079322;28;20127;-65
2022/01/17 06:16:57;;;;;;;2.35;0.80;;;;;;;-149.78;100.00;50577.06;5079104;28;20162;-65
2022/01/17 06:19:22;;;;;;;4.80;1.20;;;;;;;-149.78;100.00;50577.06;5061284;28;20056;-65
2022/01/17 06:21:48;;;;;;;4.40;1.10;;;;;;;-149.78;100.00;50600.53;5078941;28;20058;-65
2022/01/17 06:24:14;;;;;;;3.20;0.80;;;;;;;-149.78;100.00;50582.94;5079068;28;20036;-65
2022/01/17 06:26:41;;;;;;;11.02;0.90;;;;;;;-149.78;100.00;50608.34;5079014;28;20037;-65
2022/01/17 06:29:10;;;;;;;6.13;1.05;;;;;;;-149.78;100.00;50596.63;5061211;28;20558;-65
2022/01/17 06:31:37;;;;;;;2.97;0.95;;;;;;;-149.78;100.00;50565.31;5078747;28;20032;-65
2022/01/17 06:34:03;;;;;;;2.00;0.80;;;;;;;-149.78;100.00;50608.34;5078984;28;20034;-65
2022/01/17 06:36:29;;;;;;;1.08;0.60;;;;;;;-149.78;100.00;50565.31;5078933;28;20093;-64
2022/01/17 06:38:56;;;;;;;3.78;0.85;;;;;;;-149.78;100.00;50561.41;5078820;28;20124;-65
2022/01/17 06:41:22;;;;;;;3.38;1.08;;;;;;;-149.78;100.00;50600.53;5079082;28;20035;-65
2022/01/17 06:43:48;;;;;;;7.07;1.20;;;;;;;-149.78;100.00;50565.31;5060326;28;20033;-65
2022/01/17 06:46:14;;;;;;;4.38;0.75;;;;;;;-149.78;100.00;50584.88;5077651;28;20042;-65
2022/01/17 06:48:41;;;;;;;2.38;0.80;;;;;;;-149.78;100.00;50577.06;5075243;28;20116;-65
2022/01/17 06:51:08;;;;;;;4.80;1.10;;;;;;;-149.78;100.00;50618.13;5075890;28;20041;-65
2022/01/17 06:53:33;;;;;;;3.85;1.00;;;;;;;-149.78;100.00;50580.97;5075579;28;20085;-65
2022/01/17 06:56:00;;;;;;;3.25;0.98;;;;;;;-149.78;100.00;50577.06;5075420;28;20123;-65
2022/01/17 06:58:27;;;;;;;4.38;1.75;;;;;;;-149.78;100.00;50608.34;5075721;28;20055;-65
2022/01/17 07:00:52;;;;;;;6.75;0.90;;;;;;;-149.78;100.00;50561.41;5069288;28;20044;-65
2022/01/17 07:03:18;;;;;;;6.22;0.80;;;;;;;-149.78;100.00;50565.31;5063584;28;20033;-65
2022/01/17 07:05:44;;;;;;;3.00;0.90;;;;;;;-149.78;100.00;50579.00;5074358;28;20482;-65
2022/01/17 07:08:09;;;;;;;4.93;1.08;;;;;;;-149.78;100.00;50598.56;5069054;28;20425;-65
2022/01/17 07:10:35;;;;;;;5.40;0.90;;;;;;;-149.78;100.00;50557.50;5075475;28;20056;-65
2022/01/17 07:13:01;;;;;;;5.47;1.95;;;;;;;-149.78;100.00;50565.31;5071337;28;20402;-65
2022/01/17 07:15:26;;;;;;;3.78;1.00;;;;;;;-149.78;100.00;50557.50;5059888;28;20052;-64
2022/01/17 07:17:52;;;;;;;6.43;1.10;;;;;;;-149.78;100.00;50600.53;5069637;28;20426;-65
2022/01/17 07:20:18;;;;;;;8.25;1.25;;;;;;;-149.78;100.00;50579.00;5057555;28;20123;-62
2022/01/17 07:22:44;;;;;;;5.88;1.02;;;;;;;-149.78;100.00;50545.75;5057108;28;20098;-61
2022/01/17 07:25:09;;;;;;;4.85;1.23;;;;;;;-149.78;100.00;50565.31;5051836;28;20056;-61
2022/01/17 07:27:36;;;;;;;5.07;1.20;;;;;;;-149.78;100.00;50577.06;5063533;28;20021;-60
2022/01/17 07:30:05;;;;;;;6.15;1.30;;;;;;;-149.78;100.00;50565.31;5072171;28;20050;-61
2022/01/17 07:32:31;;;;;;;7.43;1.52;;;;;;;-149.78;100.00;50565.31;5071199;28;20506;-62
2022/01/17 07:34:57;;;;;;;5.30;1.42;;;;;;;-149.78;100.00;50582.94;5058310;28;20040;-65
2022/01/17 07:37:23;;;;;;;8.48;1.40;;;;;;;-149.78;100.00;50573.16;5066686;28;21394;-64
2022/01/17 07:39:48;;;;;;;7.10;1.17;;;;;;;-149.78;100.00;50543.81;5074109;28;20040;-65
2022/01/17 07:42:14;;;;;;;5.07;1.08;;;;;;;-149.78;100.00;50590.75;5056734;28;20036;-65
2022/01/17 07:44:43;;;;;;;5.63;1.75;;;;;;;-149.78;100.00;50561.41;5061291;28;20396;-65
2022/01/17 07:47:16;;;;;;;10.95;1.33;;;;;;;-149.78;100.00;50573.16;5061069;28;20102;-64
2022/01/17 07:49:42;;;;;;;3.92;1.38;;;;;;;-149.78;100.00;50553.59;5062809;28;20153;-64
2022/01/17 07:52:08;;;;;;;4.85;1.40;;;;;;;-149.78;100.00;50561.41;5058200;28;20402;-64
2022/01/17 07:54:37;;;;;;;9.18;1.05;;;;;;;-149.78;100.00;50545.75;5074182;28;20047;-64
2022/01/17 07:57:03;;;;;;;4.40;1.20;;;;;;;-149.78;100.00;50577.06;5063718;28;20356;-65
2022/01/17 07:59:30;;;;;;;4.60;1.30;;;;;;;-149.78;100.00;50541.84;5060788;28;20033;-64
2022/01/17 08:01:56;;;;;;;5.82;1.23;;;;;;;-149.78;100.00;50530.13;5064120;28;20032;-64
2022/01/17 08:04:22;;;;;;;5.97;1.10;;;;;;;-149.78;100.00;50561.41;5057442;28;20044;-64
2022/01/17 08:06:49;;;;;;;6.47;1.10;;;;;;;-149.78;100.00;50565.31;5054981;28;20064;-64
2022/01/17 08:09:20;;;;;;;2.58;1.30;;;;;;;-149.78;100.00;50565.31;5068947;28;20129;-64
2022/01/17 08:11:46;;;;;;;8.88;1.30;;;;;;;-149.78;100.00;50541.84;5054319;28;20082;-64
2022/01/17 08:14:12;;;;;;;9.32;1.50;;;;;;;-149.78;100.00;50588.78;5044193;28;20048;-64
2022/01/17 08:16:37;;;;;;;9.82;2.42;;;;;;;-149.78;100.00;50584.88;5073740;28;20039;-65
2022/01/17 08:19:03;;;;;;;10.77;2.17;;;;;;;-149.78;100.00;50569.22;5058381;28;20033;-64
2022/01/17 08:21:29;;;;;;;3.13;1.10;;;;;;;-149.78;100.00;50506.66;5055354;28;20502;-64
2022/01/17 08:23:54;;;;;;;6.45;1.50;;;;;;;-149.78;100.00;50534.03;5059524;28;20049;-64
2022/01/17 08:26:21;;;;;;;8.68;1.42;;;;;;;-149.78;100.00;50577.06;5063738;28;20028;-64
2022/01/17 08:28:48;;;;;;;8.43;1.42;;;;;;;-149.78;100.00;50600.53;5061084;28;20040;-64
2022/01/17 08:31:14;;;;;;;3.65;1.40;;;;;;;-149.78;100.00;50580.97;5051283;28;20040;-64
2022/01/17 08:33:40;;;;;;;8.93;1.55;;;;;;;-149.78;100.00;50573.16;5066952;28;20036;-64
2022/01/17 08:36:07;;;;;;;7.40;2.10;;;;;;;-149.78;100.00;50577.06;5069797;28;20034;-64
2022/01/17 08:38:36;;;;;;;6.00;1.65;;;;;;;-149.78;100.00;50586.84;5072742;28;20098;-64
2022/01/17 08:41:01;;;;;;;8.32;1.70;;;;;;;-149.78;100.00;50539.91;5073383;28;20036;-64
2022/01/17 08:43:27;;;;;;;3.50;1.50;;;;;;;-149.78;100.00;50580.97;5070196;28;20033;-64
2022/01/17 08:45:54;;;;;;;7.38;1.90;;;;;;;-149.78;100.00;50594.66;5064034;28;20029;-64
2022/01/17 08:48:21;;;;;;;8.05;1.98;;;;;;;-149.78;100.00;50549.69;5060351;28;20036;-65
2022/01/17 08:50:48;;;;;;;8.93;1.77;;;;;;;-149.78;100.00;50608.34;5070066;28;20028;-64
2022/01/17 08:53:15;;;;;;;4.68;1.08;;;;;;;-149.78;100.00;50612.25;5055045;28;20029;-64
2022/01/17 08:55:43;;;;;;;4.60;1.20;;;;;;;-149.78;100.00;50573.16;5060700;28;20032;-64
2022/01/17 08:58:10;;;;;;;6.72;1.13;;;;;;;-149.78;100.00;50565.31;5054720;28;20055;-64
2022/01/17 09:00:37;;;;;;;6.72;1.20;;;;;;;-149.78;100.00;50553.59;5052580;28;20074;-65
2022/01/17 09:03:03;;;;;;;7.13;1.63;;;;;;;-149.78;100.00;50528.16;5055259;28;20029;-65
2022/01/17 09:05:30;;;;;;;4.10;1.00;;;;;;;-149.78;100.00;50584.88;5063333;28;20031;-64
2022/01/17 09:07:56;;;;;;;4.07;1.38;;;;;;;-149.78;100.00;50580.97;5072971;28;20044;-65
2022/01/17 09:10:22;;;;;;;3.85;1.00;;;;;;;-149.78;100.00;50561.41;5072457;28;20051;-65
2022/01/17 09:12:47;;;;;;;5.00;1.17;;;;;;;-149.78;100.00;50592.72;5069335;28;20120;-65
2022/01/17 09:15:13;;;;;;;6.28;1.38;;;;;;;-149.78;100.00;50575.09;5067241;28;20044;-66
2022/01/17 09:17:40;;;;;;;5.28;1.48;;;;;;;-149.78;100.00;50561.41;5062071;28;20035;-66
2022/01/17 09:20:06;;;;;;;4.32;1.10;;;;;;;-149.78;100.00;50530.13;5064279;28;20028;-66
2022/01/17 09:22:32;;;;;;;6.68;1.30;;;;;;;-149.78;100.00;50602.47;5055665;28;20029;-66
2022/01/17 09:24:59;;;;;;;6.20;0.95;;;;;;;-149.78;100.00;50565.31;5065301;28;20123;-66
2022/01/17 09:27:25;;;;;;;5.78;1.48;;;;;;;-149.78;100.00;50565.31;5066107;28;20123;-65
2022/01/17 09:29:52;;;;;;;4.85;1.10;;;;;;;-149.78;100.00;50553.59;5060799;28;20099;-65
2022/01/17 09:32:18;;;;;;;4.00;1.20;;;;;;;-149.78;100.00;50569.22;5053846;28;20040;-66
2022/01/17 09:34:46;;;;;;;5.47;1.40;;;;;;;-149.78;100.00;50571.19;5072239;28;20037;-65
2022/01/17 09:37:12;;;;;;;4.05;1.17;;;;;;;-149.78;100.00;50579.00;5072164;28;20040;-65
2022/01/17 09:39:38;;;;;;;8.80;1.17;;;;;;;-149.78;100.00;50600.53;5072380;28;20395;-66
2022/01/17 09:42:06;;;;;;;7.47;1.42;;;;;;;-149.78;100.00;50553.59;5072612;28;20037;-66
2022/01/17 09:44:33;;;;;;;5.53;1.20;;;;;;;-149.78;100.00;50545.75;5072283;28;20036;-66
2022/01/17 09:47:00;;;;;;;2.65;1.20;;;;;;;-149.78;100.00;50584.88;5052872;28;20029;-66
2022/01/17 09:49:35;;;;;;;3.72;1.17;;;;;;;-149.78;100.00;50557.50;5068636;28;20043;-66
2022/01/17 09:54:59;;;;;;;6.18;1.45;;;;;;;-149.78;100.00;50582.94;5072572;28;20372;-66
2022/01/17 09:57:27;;;;;;;8.23;1.95;;;;;;;-149.78;100.00;50563.38;5072041;28;20124;-65
2022/01/17 09:59:53;;;;;;;4.30;1.30;;;;;;;-149.78;100.00;50580.97;5065281;28;20048;-66
2022/01/17 10:02:19;;;;;;;6.28;1.42;;;;;;;-149.78;100.00;50592.72;5064204;28;20365;-65
2022/01/17 10:04:45;;;;;;;3.60;1.60;;;;;;;-149.78;100.00;50541.84;5060560;28;20047;-65
2022/01/17 10:07:10;;;;;;;4.53;1.90;;;;;;;-149.78;100.00;50541.84;5065594;28;20033;-65
2022/01/17 10:09:39;;;;;;;3.13;1.23;;;;;;;-149.78;100.00;50561.41;5059575;28;20434;-66
2022/01/17 10:12:15;;;;;;;8.93;1.00;;;;;;;-149.78;100.00;50534.03;5064806;28;20025;-66
2022/01/17 10:14:58;;;;;;;7.32;1.67;;;;;;;-149.78;100.00;50561.41;5062343;28;20120;-65
2022/01/17 10:17:40;;;;;;;23.10;6.38;;;;;;;-149.78;100.00;50547.72;5065729;28;20026;-62
2022/01/17 10:20:08;;;;;;;6.30;1.50;;;;;;;-149.78;100.00;50553.59;5042588;28;20036;-63
2022/01/17 10:22:44;;;;;;;4.72;1.10;;;;;;;-149.78;100.00;50565.31;5048222;28;20123;-63
2022/01/17 10:25:27;;;;;;;4.63;1.02;;;;;;;-149.78;100.00;50549.69;5047636;28;20036;-63
2022/01/17 10:29:01;;;;;;;6.20;1.90;;;;;;;-149.78;100.00;50586.84;5045880;28;20490;-62
2022/01/17 10:36:56;;;;;;;4.75;1.17;;;;;;;-149.78;100.00;50549.69;5062884;28;20123;-63
2022/01/17 10:39:22;;;;;;;6.43;1.48;;;;;;;-149.78;100.00;50541.84;5065348;28;20111;-63
2022/01/17 10:41:48;;;;;;;3.90;1.33;;;;;;;-149.78;100.00;50530.13;5039060;28;20422;-63
2022/01/17 10:44:35;;;;;;;8.30;1.60;;;;;;;-149.78;100.00;50561.41;5064544;28;20072;-63
2022/01/17 10:47:26;;;;;;;5.97;1.40;;;;;;;-149.78;100.00;50541.84;5072666;28;20032;-63
2022/01/17 10:50:00;;;;;;;4.63;1.60;;;;;;;-149.78;100.00;50553.59;5074442;28;20050;-63
2022/01/17 10:52:34;;;;;;;3.60;1.52;;;;;;;-149.78;100.00;50510.56;5075088;28;20024;-63
2022/01/17 10:55:07;;;;;;;3.70;1.50;;;;;;;-149.78;100.00;50530.13;5075427;28;20067;-63
2022/01/17 10:57:39;;;;;;;3.60;1.58;;;;;;;-149.78;100.00;50541.84;5069831;28;20052;-63
2022/01/17 11:00:10;;;;;;;5.63;1.58;;;;;;;-149.78;100.00;50545.75;5074926;28;20364;-63
2022/01/17 11:02:37;;;;;;;10.60;1.77;;;;;;;-149.78;100.00;50491.00;5073270;28;20078;-63
2022/01/17 11:05:06;;;;;;;7.43;1.65;;;;;;;-149.78;100.00;50530.13;5059414;28;20036;-63
2022/01/17 11:07:41;;;;;;;11.93;2.40;;;;;;;-149.78;100.00;50526.22;5072189;28;20032;-63
2022/01/17 11:10:23;;;;;;;13.77;4.82;;;;;;;-149.78;100.00;50559.47;5028013;28;20365;-63
2022/01/17 11:12:51;;;;;;;13.55;7.32;;;;;;;-149.78;100.00;50502.75;5064890;28;20025;-63
2022/01/17 11:15:19;;;;;;;6.78;2.22;;;;;;;-149.78;100.00;50491.00;5067265;28;20044;-63
2022/01/17 11:17:51;;;;;;;6.70;1.73;;;;;;;-149.78;100.00;50541.84;5067565;28;20048;-63
2022/01/17 11:20:19;;;;;;;9.30;1.80;;;;;;;-149.78;100.00;50534.03;5058031;28;20035;-66
2022/01/17 11:22:48;;;;;;;9.20;3.03;;;;;;;-149.78;100.00;50514.47;5058899;28;20037;-67
2022/01/17 11:25:17;;;;;;;9.57;3.75;;;;;;;-149.78;100.00;50491.00;5066545;28;20418;-67
2022/01/17 11:27:44;;;;;;;3.20;1.80;;;;;;;-149.78;100.00;50506.66;5056557;28;20037;-66
2022/01/17 11:30:10;;;;;;;3.53;1.73;;;;;;;-149.78;100.00;50526.22;5074721;28;20048;-66
2022/01/17 11:32:36;;;;;;;8.55;1.75;;;;;;;-149.78;100.00;50522.28;5046545;28;20342;-67
2022/01/17 11:35:04;;;;;;;6.13;1.60;;;;;;;-149.78;100.00;50477.31;5064972;28;20052;-66
2022/01/17 11:37:39;;;;;;;33.42;12.10;;;;;;;-149.78;100.00;50494.91;5069448;28;20483;-67
2022/01/17 11:40:09;;;;;;;8.82;3.90;;;;;;;-149.78;100.00;50510.56;5064868;28;20376;-66
2022/01/17 11:42:47;;;;;;;7.72;2.38;;;;;;;-149.78;100.00;50541.84;5067431;28;20064;-67
2022/01/17 11:45:22;;;;;;;6.05;1.90;;;;;;;-149.78;100.00;50440.16;5062734;28;20029;-67